Aérodrome :
LOGIN :

S'inscrire | Disclaimer

   EN    FR    IT 

 










Légende :    VFR   VFR Marginal   IFR   IFR Intensif   IFR Très Intensif
Visi : 
Plafond : 
>= 8 km
>= 3000ft
5 à 8 km
1000 à 3000 ft
1500m à 5 km
500 à 1000 ft
800 à 1500m
200 à 500 ft
< 800m
< 200 ft
Symboles :   Orages  Brouillard  Fortes neiges  Fortes précipitations  Vent > 20 kt
SIGMETs :   Divers  Orages  Givrage  Turbulence  Onde Orograph.  Cendres Volcan.






- Altitude de l'aérodrome : 404 ft
- Code IATA : WRO


EPWR - Wroclaw

DERNIER METAR :
  • 230230Z 28006KT 9999 BKN031 16/15 Q1018

METARs EXPIRÉS :
  • 230200Z 29004KT 9999 SCT031 16/15 Q1018
  • 230130Z 27002KT 9999 FEW028 17/16 Q1018
  • 230100Z 28006KT 9999 BKN027 17/16 Q1018
  • 230030Z 29006KT 9999 BKN021 17/17 Q1018
  • 230000Z 29006KT 9999 FEW026 16/16 Q1018
  • 222330Z 27004KT CAVOK 17/17 Q1018
  • 222300Z 28003KT CAVOK 18/17 Q1018
  • 222230Z 27002KT 9999 FEW043 19/18 Q1018
  • 222200Z 33004KT 9999 SCT040 20/18 Q1017

TAF TAF EPWR
Valide du 23 à 00h jusqu'au 24 à 00h UTC


222330Z 2300/2324 28004KT CAVOK
PROB30
TEMPO 2300/2305 2500 BR
TEMPO 2322/2324 -SHRA BKN030CB



MET'MAP, la Météo Aéronautique d'un coup d'oeil ! - Copyright ORBIFLY Décembre 2007 - Disclaimer

ORBIFLY MET'MAP TEAM :

Programmation & Développement : Alexandra Zaïnal
Sur une idée originale de : Baudouin d'Aumeries
Soutien technique & logistique : Manuel Goepfert
Assistance : Marc-Olivier Méhu




SOURCES & CREDITS :

   NOAA